Time;durP1;ratioP1;P1;durP2;ratioP2;P2;SDS_P1;SDS_P2;PMS_P1;PMS_P2;Temp;Humidity;BMP_temperature;BMP_pressure;BME280_temperature;BME280_humidity;BME280_pressure;Samples;Min_cycle;Max_cycle;Signal;HPM_P1;HPM_P2
2022/01/05 00:00:27;;;;;;;4.88;2.38;;;10.90;78.20;;;;;;5012788;28;20041;-57
2022/01/05 00:02:53;;;;;;;11.18;3.63;;;10.90;78.60;;;;;;5013692;28;20053;-57
2022/01/05 00:05:18;;;;;;;9.50;2.35;;;10.80;78.50;;;;;;5013539;28;20026;-56
2022/01/05 00:07:44;;;;;;;7.75;2.20;;;10.80;79.10;;;;;;5013601;28;20029;-55
2022/01/05 00:10:10;;;;;;;9.27;2.80;;;10.80;78.80;;;;;;5013992;28;20072;-56
2022/01/05 00:12:36;;;;;;;12.70;3.45;;;10.90;77.80;;;;;;5013627;28;20443;-56
2022/01/05 00:15:02;;;;;;;9.63;2.63;;;10.90;77.60;;;;;;5013345;28;20483;-58
2022/01/05 00:17:28;;;;;;;6.38;2.25;;;10.90;77.00;;;;;;5013807;28;20452;-56
2022/01/05 00:19:54;;;;;;;7.07;1.80;;;10.90;76.80;;;;;;5012860;28;20046;-56
2022/01/05 00:22:19;;;;;;;6.70;1.40;;;10.90;77.20;;;;;;5012235;28;20022;-61
2022/01/05 00:24:46;;;;;;;8.20;3.13;;;10.80;76.00;;;;;;5013746;28;20034;-64
2022/01/05 00:27:11;;;;;;;10.75;2.03;;;10.70;77.30;;;;;;5012962;28;20383;-59
2022/01/05 00:29:37;;;;;;;5.43;1.98;;;10.70;77.90;;;;;;5013303;28;20490;-65
2022/01/05 00:32:03;;;;;;;6.40;1.90;;;10.60;78.20;;;;;;5014011;28;20592;-65
2022/01/05 00:34:29;;;;;;;12.32;2.67;;;10.60;77.90;;;;;;5013981;28;20116;-63
2022/01/05 00:36:54;;;;;;;7.50;3.00;;;10.50;76.80;;;;;;5013920;28;20471;-57
2022/01/05 00:39:20;;;;;;;15.93;4.13;;;10.50;77.20;;;;;;5013647;28;20029;-56
2022/01/05 00:41:45;;;;;;;9.52;3.55;;;10.50;77.50;;;;;;5013313;28;20036;-55
2022/01/05 00:44:11;;;;;;;8.35;3.00;;;10.40;77.60;;;;;;5011888;28;20061;-57
2022/01/05 00:46:36;;;;;;;14.35;4.53;;;10.50;77.80;;;;;;5013892;28;20065;-58
2022/01/05 00:49:02;;;;;;;19.45;5.90;;;10.40;77.70;;;;;;5012559;28;20480;-64
2022/01/05 00:51:28;;;;;;;12.02;3.47;;;10.40;77.70;;;;;;5013572;28;20513;-65
2022/01/05 00:53:53;;;;;;;10.45;3.85;;;10.40;77.90;;;;;;5012375;28;20100;-63
2022/01/05 00:56:19;;;;;;;14.18;4.60;;;10.40;77.50;;;;;;5013426;28;20026;-61
2022/01/05 00:58:44;;;;;;;11.95;4.32;;;10.30;77.40;;;;;;5013107;28;20036;-63
2022/01/05 01:01:10;;;;;;;10.38;3.20;;;10.30;77.60;;;;;;5013483;28;20069;-64
2022/01/05 01:03:36;;;;;;;10.02;3.38;;;10.30;77.90;;;;;;5013375;28;20022;-63
2022/01/05 01:06:02;;;;;;;10.05;3.97;;;10.20;77.30;;;;;;5013542;28;20471;-64
2022/01/05 01:08:27;;;;;;;12.50;3.08;;;10.30;77.30;;;;;;5013630;28;20033;-62
2022/01/05 01:10:54;;;;;;;14.50;3.15;;;10.20;78.10;;;;;;5012918;28;20026;-65
2022/01/05 01:13:20;;;;;;;11.05;2.78;;;10.20;77.90;;;;;;5013269;28;20041;-65
2022/01/05 01:15:50;;;;;;;8.43;2.83;;;10.20;79.20;;;;;;5013264;28;20037;-64
2022/01/05 01:18:15;;;;;;;17.65;3.17;;;10.20;78.70;;;;;;5013260;28;20033;-64
2022/01/05 01:20:41;;;;;;;10.50;3.03;;;10.20;78.10;;;;;;5012973;28;20387;-65
2022/01/05 01:23:07;;;;;;;12.15;3.63;;;10.20;78.30;;;;;;5013178;28;20049;-63
2022/01/05 01:25:33;;;;;;;10.30;3.20;;;10.10;78.00;;;;;;5013206;28;20030;-65
2022/01/05 01:27:59;;;;;;;11.75;3.60;;;10.10;78.10;;;;;;5009742;28;20084;-66
2022/01/05 01:30:26;;;;;;;10.20;2.80;;;10.10;78.50;;;;;;5010827;28;20042;-64
2022/01/05 01:32:52;;;;;;;11.25;3.17;;;10.20;77.80;;;;;;5012884;28;20050;-65
2022/01/05 01:35:17;;;;;;;12.13;3.83;;;10.10;78.10;;;;;;5012749;28;20064;-66
2022/01/05 01:37:43;;;;;;;13.35;3.58;;;10.10;77.90;;;;;;5012003;28;20080;-64
2022/01/05 01:40:09;;;;;;;9.48;3.42;;;10.10;77.60;;;;;;5014414;28;20038;-66
2022/01/05 01:42:35;;;;;;;8.38;2.80;;;10.10;77.90;;;;;;5026517;28;20486;-60
2022/01/05 01:45:03;;;;;;;11.80;3.20;;;10.10;77.30;;;;;;5010132;28;20033;-62
2022/01/05 01:47:28;;;;;;;10.82;3.72;;;10.10;77.00;;;;;;5007226;28;20534;-61
2022/01/05 01:49:54;;;;;;;11.10;3.00;;;10.10;77.50;;;;;;5010120;28;20128;-66
2022/01/05 01:52:19;;;;;;;10.18;2.80;;;10.00;76.90;;;;;;5008778;28;20089;-65
2022/01/05 01:54:46;;;;;;;12.63;4.10;;;10.00;76.40;;;;;;5008764;28;20030;-64
2022/01/05 01:57:12;;;;;;;13.20;3.42;;;10.00;76.90;;;;;;5012825;28;20018;-64
2022/01/05 01:59:38;;;;;;;14.05;3.47;;;10.00;75.70;;;;;;5010382;28;20029;-63
2022/01/05 02:02:05;;;;;;;8.38;3.28;;;9.90;75.50;;;;;;5013004;28;20026;-64
2022/01/05 02:04:31;;;;;;;8.75;3.13;;;9.90;75.50;;;;;;5013247;28;20026;-64
2022/01/05 02:06:57;;;;;;;12.43;2.92;;;9.90;75.70;;;;;;5014181;28;20026;-65
2022/01/05 02:09:23;;;;;;;7.82;2.30;;;9.90;75.50;;;;;;5014725;28;20055;-66
2022/01/05 02:11:48;;;;;;;10.68;3.33;;;9.80;75.60;;;;;;5015290;28;20030;-65
2022/01/05 02:14:14;;;;;;;13.52;3.10;;;9.80;75.20;;;;;;5015138;28;20105;-65
2022/01/05 02:16:43;;;;;;;11.40;3.38;;;9.80;75.10;;;;;;5014860;28;20029;-66
2022/01/05 02:19:09;;;;;;;12.25;3.30;;;9.80;75.30;;;;;;5004426;28;20033;-65
2022/01/05 02:21:37;;;;;;;12.25;3.25;;;9.80;75.10;;;;;;5014157;28;20042;-65
2022/01/05 02:24:06;;;;;;;14.38;3.45;;;9.70;75.10;;;;;;5015374;28;20115;-65
2022/01/05 02:26:32;;;;;;;11.85;3.42;;;9.70;75.20;;;;;;5014545;28;20029;-66
2022/01/05 02:28:58;;;;;;;16.00;4.05;;;9.70;75.00;;;;;;5016182;28;20025;-64
2022/01/05 02:31:24;;;;;;;11.15;3.30;;;9.60;75.30;;;;;;5014459;28;20030;-66
2022/01/05 02:33:49;;;;;;;10.93;3.45;;;9.60;75.80;;;;;;5016098;28;20021;-66
2022/01/05 02:36:19;;;;;;;13.32;3.60;;;9.60;75.50;;;;;;5015954;28;20108;-65
2022/01/05 02:38:45;;;;;;;16.05;4.47;;;9.60;75.20;;;;;;5015701;28;20097;-59
2022/01/05 02:41:12;;;;;;;11.70;4.07;;;9.60;75.40;;;;;;5015547;28;20061;-65
2022/01/05 02:43:40;;;;;;;14.07;4.03;;;9.60;75.90;;;;;;5015961;28;20025;-65
2022/01/05 02:46:12;;;;;;;15.55;3.55;;;9.60;76.40;;;;;;5015761;28;20534;-66
2022/01/05 02:48:38;;;;;;;;;;;9.60;76.30;;;;;;5015985;28;20022;-65
2022/01/05 02:51:05;;;;;;;13.13;3.30;;;9.50;75.50;;;;;;5015785;28;19916;-66
2022/01/05 02:53:31;;;;;;;10.80;3.20;;;9.50;75.50;;;;;;5015448;28;20121;-65
2022/01/05 02:55:57;;;;;;;15.70;4.13;;;9.50;76.30;;;;;;5015683;28;20088;-65
2022/01/05 02:58:22;;;;;;;13.98;3.53;;;9.50;75.70;;;;;;5015625;28;20471;-66
2022/01/05 03:00:48;;;;;;;12.05;3.58;;;9.40;76.00;;;;;;5015453;28;20048;-64
2022/01/05 03:03:14;;;;;;;16.15;3.35;;;9.40;75.90;;;;;;5014978;28;20018;-66
2022/01/05 03:05:40;;;;;;;9.65;2.92;;;9.40;75.90;;;;;;5015714;28;20040;-65
2022/01/05 03:08:06;;;;;;;10.55;2.63;;;9.40;75.70;;;;;;5015105;28;20022;-65
2022/01/05 03:10:31;;;;;;;13.93;2.70;;;9.40;75.50;;;;;;5015651;28;20415;-66
2022/01/05 03:12:57;;;;;;;8.10;2.22;;;9.40;75.50;;;;;;5014889;28;20100;-65
2022/01/05 03:15:23;;;;;;;10.75;2.33;;;9.30;75.90;;;;;;5015382;28;20022;-65
2022/01/05 03:17:48;;;;;;;8.82;2.67;;;9.30;75.80;;;;;;5015304;28;20018;-65
2022/01/05 03:20:17;;;;;;;14.63;3.13;;;9.30;75.70;;;;;;5015127;28;20061;-66
2022/01/05 03:22:44;;;;;;;14.30;2.65;;;9.30;75.90;;;;;;5014798;28;20479;-65
2022/01/05 03:25:15;;;;;;;11.32;2.70;;;9.20;75.80;;;;;;5015122;28;20022;-66
2022/01/05 03:27:46;;;;;;;9.65;2.05;;;9.30;75.90;;;;;;5014753;28;20030;-66
2022/01/05 03:30:14;;;;;;;11.75;2.78;;;9.20;76.20;;;;;;5015096;28;20030;-65
2022/01/05 03:33:00;;;;;;;7.00;1.83;;;9.20;76.10;;;;;;5015088;28;20025;-66
2022/01/05 03:35:28;;;;;;;12.30;3.55;;;9.20;76.20;;;;;;5015134;28;20029;-65
2022/01/05 03:37:53;;;;;;;13.75;2.83;;;9.20;76.00;;;;;;5014296;28;20022;-65
2022/01/05 03:40:19;;;;;;;14.98;3.20;;;9.20;76.20;;;;;;5014708;28;20087;-65
2022/01/05 03:42:45;;;;;;;9.68;2.05;;;9.20;76.20;;;;;;5014726;28;20061;-64
2022/01/05 03:45:10;;;;;;;18.83;3.58;;;9.20;76.70;;;;;;5014786;28;20026;-64
2022/01/05 03:47:36;;;;;;;11.75;2.58;;;9.20;76.30;;;;;;5014351;28;20061;-58
2022/01/05 03:50:02;;;;;;;11.43;2.75;;;9.20;76.30;;;;;;5014855;28;20041;-65
2022/01/05 03:52:28;;;;;;;9.63;3.05;;;9.10;76.60;;;;;;5014212;28;20046;-64
2022/01/05 03:54:54;;;;;;;11.10;2.80;;;9.10;76.70;;;;;;5014629;28;20476;-65
2022/01/05 03:57:19;;;;;;;10.43;2.60;;;9.10;76.70;;;;;;5014599;28;20388;-64
2022/01/05 03:59:45;;;;;;;9.93;2.75;;;9.10;76.90;;;;;;5014296;28;20022;-65
2022/01/05 04:02:10;;;;;;;12.25;2.60;;;9.10;77.20;;;;;;5014449;28;20379;-61
2022/01/05 04:04:36;;;;;;;8.07;2.20;;;9.10;76.80;;;;;;5014459;28;20029;-65
2022/01/05 04:07:02;;;;;;;16.17;3.03;;;9.10;76.90;;;;;;5014169;28;20022;-62
2022/01/05 04:09:28;;;;;;;11.52;2.75;;;9.00;76.90;;;;;;5014373;28;20022;-65
2022/01/05 04:11:53;;;;;;;11.75;2.63;;;9.00;76.80;;;;;;5014285;28;20105;-65
2022/01/05 04:14:19;;;;;;;12.68;2.30;;;9.00;76.90;;;;;;5013959;28;20026;-65
2022/01/05 04:16:44;;;;;;;11.95;2.60;;;9.00;77.40;;;;;;5012363;28;20030;-65
2022/01/05 04:19:10;;;;;;;12.70;2.75;;;9.00;77.20;;;;;;5014082;28;20034;-66
2022/01/05 04:21:35;;;;;;;16.85;2.63;;;9.00;77.10;;;;;;5014004;28;20045;-66
2022/01/05 04:24:01;;;;;;;9.45;2.58;;;9.00;77.30;;;;;;5013867;28;20098;-64
2022/01/05 04:26:27;;;;;;;11.65;2.83;;;9.00;77.40;;;;;;5014090;28;20029;-63
2022/01/05 04:28:52;;;;;;;12.25;3.25;;;8.90;77.70;;;;;;5013798;28;20033;-65
2022/01/05 04:31:18;;;;;;;11.32;2.35;;;9.00;77.70;;;;;;5013746;28;20030;-62
2022/01/05 04:33:43;;;;;;;12.38;2.67;;;8.90;77.90;;;;;;5013855;28;20058;-66
2022/01/05 04:36:09;;;;;;;13.27;3.22;;;8.90;78.00;;;;;;5013670;28;20025;-66
2022/01/05 04:38:35;;;;;;;12.93;2.83;;;8.90;78.00;;;;;;5013880;28;20029;-63
2022/01/05 04:41:01;;;;;;;9.27;2.20;;;8.90;78.10;;;;;;5013525;28;20391;-65
2022/01/05 04:43:26;;;;;;;11.30;2.88;;;8.90;78.40;;;;;;5013859;28;20460;-66
2022/01/05 04:45:52;;;;;;;9.77;2.50;;;8.90;78.50;;;;;;5013683;28;20026;-63
2022/01/05 04:48:18;;;;;;;12.32;2.40;;;8.80;78.30;;;;;;5013331;28;20099;-66
2022/01/05 04:50:43;;;;;;;15.60;3.30;;;8.80;78.90;;;;;;5013408;28;20036;-66
2022/01/05 04:53:11;;;;;;;12.02;2.55;;;8.80;78.40;;;;;;5013737;28;20069;-66
2022/01/05 04:55:38;;;;;;;11.77;2.63;;;8.80;78.60;;;;;;5013577;28;20076;-65
2022/01/05 04:58:04;;;;;;;9.88;3.08;;;8.80;78.80;;;;;;5013288;28;20021;-66
2022/01/05 05:00:29;;;;;;;9.20;2.25;;;8.80;79.10;;;;;;5013411;28;20034;-66
2022/01/05 05:02:55;;;;;;;12.05;3.35;;;8.80;79.10;;;;;;5013584;28;20026;-66
2022/01/05 05:05:21;;;;;;;11.90;3.45;;;8.80;79.40;;;;;;5013024;28;20029;-60
2022/01/05 05:07:46;;;;;;;13.88;3.90;;;8.70;78.40;;;;;;5013482;28;20018;-61
2022/01/05 05:10:12;;;;;;;12.75;3.88;;;8.70;78.00;;;;;;5013380;28;20050;-64
2022/01/05 05:12:38;;;;;;;14.43;4.18;;;8.80;77.90;;;;;;5013430;28;20493;-65
2022/01/05 05:15:03;;;;;;;17.08;3.20;;;8.80;77.50;;;;;;5013509;28;20018;-61
2022/01/05 05:17:29;;;;;;;12.07;2.80;;;8.90;77.50;;;;;;5013246;28;20450;-63
2022/01/05 05:19:55;;;;;;;16.20;3.08;;;8.90;77.30;;;;;;5013007;28;20479;-64
2022/01/05 05:22:20;;;;;;;13.73;3.35;;;8.90;77.50;;;;;;5013344;28;20053;-63
2022/01/05 05:24:46;;;;;;;11.30;2.95;;;8.80;77.70;;;;;;5013209;28;20078;-65
2022/01/05 05:27:11;;;;;;;10.48;3.03;;;8.80;78.20;;;;;;5013315;28;20097;-64
2022/01/05 05:29:37;;;;;;;14.52;3.25;;;8.80;78.30;;;;;;5017109;28;20050;-64
2022/01/05 05:32:03;;;;;;;10.05;3.03;;;8.90;78.30;;;;;;5017485;28;20026;-65
2022/01/05 05:34:28;;;;;;;11.00;2.70;;;8.90;78.60;;;;;;5016982;28;20030;-65
2022/01/05 05:36:54;;;;;;;11.95;2.95;;;9.00;78.50;;;;;;5017082;28;20459;-65
2022/01/05 05:39:19;;;;;;;8.52;2.30;;;9.00;78.40;;;;;;5016953;28;20033;-66
2022/01/05 05:41:45;;;;;;;14.75;3.35;;;9.00;78.50;;;;;;5016918;28;20441;-66
2022/01/05 05:44:10;;;;;;;9.93;2.38;;;9.00;78.50;;;;;;5017112;28;20080;-65
2022/01/05 05:46:36;;;;;;;10.30;2.70;;;9.00;78.40;;;;;;5017309;28;20053;-63
2022/01/05 05:49:02;;;;;;;10.75;2.95;;;9.00;78.50;;;;;;5016508;28;20030;-64
2022/01/05 05:51:27;;;;;;;9.07;2.28;;;9.00;78.70;;;;;;5016691;28;20034;-65
2022/01/05 05:53:53;;;;;;;12.82;2.72;;;9.00;78.70;;;;;;5016982;28;20022;-63
2022/01/05 05:56:18;;;;;;;9.95;2.65;;;9.00;78.70;;;;;;5016602;28;20108;-64
2022/01/05 05:58:45;;;;;;;14.77;2.70;;;9.00;78.90;;;;;;5016726;28;20667;-64
2022/01/05 06:01:10;;;;;;;12.27;2.53;;;9.00;79.00;;;;;;5010147;28;20045;-65
2022/01/05 06:03:36;;;;;;;8.70;1.73;;;9.00;79.40;;;;;;5015313;28;20018;-65
2022/01/05 06:06:01;;;;;;;10.95;3.03;;;9.00;79.40;;;;;;5015110;28;20104;-65
2022/01/05 06:08:27;;;;;;;10.52;2.30;;;9.10;79.20;;;;;;5015554;28;20032;-65
2022/01/05 06:10:52;;;;;;;13.98;3.15;;;9.00;79.40;;;;;;5016384;28;20037;-65
2022/01/05 06:13:18;;;;;;;10.98;2.50;;;9.00;79.30;;;;;;5016274;28;20030;-65
2022/01/05 06:15:43;;;;;;;11.50;3.50;;;9.10;79.40;;;;;;5016254;28;20025;-61
2022/01/05 06:18:09;;;;;;;10.43;2.47;;;9.00;79.90;;;;;;5016221;28;20029;-62
2022/01/05 06:20:35;;;;;;;11.23;2.58;;;9.00;79.70;;;;;;5015075;28;20099;-65
2022/01/05 06:23:00;;;;;;;17.90;3.10;;;9.00;79.70;;;;;;5016394;28;20087;-65
2022/01/05 06:25:26;;;;;;;10.57;2.88;;;9.00;79.70;;;;;;5016229;28;20087;-65
2022/01/05 06:27:51;;;;;;;9.05;2.22;;;9.10;79.80;;;;;;5016149;28;20029;-65
2022/01/05 06:30:17;;;;;;;8.57;2.20;;;9.00;80.10;;;;;;5015749;28;20025;-65
2022/01/05 06:32:45;;;;;;;12.88;3.13;;;9.10;80.20;;;;;;5016315;28;20030;-65
2022/01/05 06:35:11;;;;;;;10.15;2.45;;;9.10;80.30;;;;;;5016090;28;20148;-64
2022/01/05 06:37:37;;;;;;;8.65;2.33;;;9.10;80.20;;;;;;5015707;28;20026;-65
2022/01/05 06:40:03;;;;;;;9.52;2.55;;;9.10;80.20;;;;;;5015381;28;20079;-65
2022/01/05 06:42:29;;;;;;;10.77;3.00;;;9.10;80.30;;;;;;5015615;28;20038;-61
2022/01/05 06:44:55;;;;;;;12.68;2.42;;;9.00;81.70;;;;;;5014741;28;20036;-58
2022/01/05 06:47:20;;;;;;;10.63;2.25;;;9.10;81.60;;;;;;5015045;28;20033;-61
2022/01/05 06:49:46;;;;;;;15.85;3.55;;;9.10;81.60;;;;;;5015258;28;20542;-64
2022/01/05 06:52:12;;;;;;;14.27;2.67;;;9.10;81.80;;;;;;5015573;28;20037;-65
2022/01/05 06:54:42;;;;;;;10.90;2.45;;;9.00;82.00;;;;;;5015533;28;20431;-65
2022/01/05 06:57:08;;;;;;;9.63;2.47;;;9.00;82.60;;;;;;5013474;28;20057;-55
2022/01/05 06:59:35;;;;;;;19.40;2.70;;;9.00;82.90;;;;;;5014039;28;20026;-60
2022/01/05 07:02:02;;;;;;;11.20;3.00;;;9.00;83.30;;;;;;5013786;28;20036;-56
2022/01/05 07:04:27;;;;;;;12.07;2.60;;;9.00;83.60;;;;;;5015600;28;20037;-56
2022/01/05 07:06:53;;;;;;;21.05;3.47;;;9.00;83.60;;;;;;5015347;28;20483;-63
2022/01/05 07:09:18;;;;;;;12.13;3.15;;;9.00;83.90;;;;;;5015152;28;20037;-55
2022/01/05 07:11:45;;;;;;;11.10;2.25;;;9.00;84.00;;;;;;5015120;28;20463;-64
2022/01/05 07:14:11;;;;;;;13.05;3.17;;;9.00;84.80;;;;;;5015298;28;20403;-64
2022/01/05 07:16:37;;;;;;;10.73;2.35;;;9.10;84.40;;;;;;5015269;28;20475;-64
2022/01/05 07:19:02;;;;;;;13.80;2.42;;;9.10;84.30;;;;;;5014924;28;20591;-64
2022/01/05 07:21:29;;;;;;;14.45;3.03;;;9.10;85.00;;;;;;5015258;28;20049;-61
2022/01/05 07:23:55;;;;;;;18.58;3.78;;;9.10;85.00;;;;;;5014897;28;20392;-63
2022/01/05 07:26:21;;;;;;;12.93;2.67;;;9.20;84.80;;;;;;5015136;28;20460;-62
2022/01/05 07:28:46;;;;;;;14.95;3.13;;;9.20;85.20;;;;;;5014311;28;20022;-64
2022/01/05 07:31:12;;;;;;;17.33;2.70;;;9.20;85.20;;;;;;5015077;28;20144;-62
2022/01/05 07:33:38;;;;;;;12.80;3.17;;;9.20;85.10;;;;;;5014967;28;20467;-64
2022/01/05 07:36:03;;;;;;;14.57;3.40;;;9.20;85.10;;;;;;5014946;28;20025;-63
2022/01/05 07:38:29;;;;;;;15.40;3.47;;;9.20;85.50;;;;;;5014531;28;20072;-62
2022/01/05 07:40:55;;;;;;;13.80;3.22;;;9.30;85.40;;;;;;5014805;28;20498;-60
2022/01/05 07:43:22;;;;;;;18.23;3.42;;;9.30;85.50;;;;;;5014456;28;20657;-61
2022/01/05 07:45:48;;;;;;;14.82;3.80;;;9.30;85.60;;;;;;5014804;28;20026;-63
2022/01/05 07:48:14;;;;;;;13.25;2.45;;;9.30;85.40;;;;;;5013278;28;20033;-58
2022/01/05 07:50:39;;;;;;;15.90;3.35;;;9.30;85.60;;;;;;4998075;28;20034;-63
2022/01/05 07:53:05;;;;;;;17.08;3.25;;;9.40;84.50;;;;;;5011442;28;20083;-61
2022/01/05 07:55:32;;;;;;;15.30;2.75;;;9.30;85.30;;;;;;5014474;28;20026;-64
2022/01/05 07:57:59;;;;;;;13.50;3.17;;;9.30;85.60;;;;;;5014122;28;20033;-63
2022/01/05 08:00:25;;;;;;;11.40;2.88;;;9.30;85.60;;;;;;5012731;28;20038;-62
2022/01/05 08:02:50;;;;;;;12.68;2.92;;;9.40;85.60;;;;;;4994630;28;20030;-63
2022/01/05 08:05:16;;;;;;;11.70;2.42;;;9.40;85.90;;;;;;4994880;28;20502;-63
2022/01/05 08:07:41;;;;;;;9.93;2.53;;;9.40;86.40;;;;;;4994676;28;20022;-63
2022/01/05 08:10:07;;;;;;;13.27;3.05;;;9.70;89.30;;;;;;4994683;28;20032;-62
2022/01/05 08:12:33;;;;;;;18.52;3.63;;;9.70;87.10;;;;;;5001832;28;20057;-61
2022/01/05 08:14:58;;;;;;;12.07;3.65;;;9.70;86.00;;;;;;5002226;28;20033;-64
2022/01/05 08:17:24;;;;;;;14.25;3.38;;;9.70;85.50;;;;;;5006500;28;21454;-62
2022/01/05 08:19:49;;;;;;;11.35;3.10;;;9.60;85.00;;;;;;5013800;28;20431;-63
2022/01/05 08:22:15;;;;;;;13.27;2.47;;;9.60;85.00;;;;;;5013922;28;20083;-64
2022/01/05 08:24:41;;;;;;;11.18;2.15;;;9.80;88.60;;;;;;5014081;28;20105;-63
2022/01/05 08:27:06;;;;;;;10.63;2.90;;;10.00;89.00;;;;;;5012897;28;20259;-61
2022/01/05 08:29:32;;;;;;;12.82;3.35;;;10.10;86.10;;;;;;5013511;28;20030;-60
2022/01/05 08:32:02;;;;;;;18.00;3.38;;;10.00;84.60;;;;;;5013696;28;20033;-60
2022/01/05 08:34:29;;;;;;;19.25;4.97;;;10.00;84.20;;;;;;5013327;28;20037;-61
2022/01/05 08:36:54;;;;;;;14.35;3.70;;;9.90;84.00;;;;;;5013660;28;20392;-63
2022/01/05 08:39:20;;;;;;;12.80;3.03;;;9.90;84.20;;;;;;5013686;28;20472;-63
2022/01/05 08:41:46;;;;;;;14.20;3.17;;;9.90;84.20;;;;;;5013346;28;20037;-62
2022/01/05 08:44:11;;;;;;;14.20;3.05;;;9.90;84.20;;;;;;4999440;28;20025;-64
2022/01/05 08:46:37;;;;;;;13.63;3.70;;;9.90;84.20;;;;;;5011788;28;20491;-63
2022/01/05 08:49:03;;;;;;;14.07;2.80;;;9.90;84.40;;;;;;5012070;28;20026;-63
2022/01/05 08:51:28;;;;;;;12.05;2.17;;;9.90;84.80;;;;;;5009261;28;20045;-65
2022/01/05 08:53:54;;;;;;;12.68;2.67;;;9.90;84.70;;;;;;5012522;28;20021;-63
2022/01/05 08:56:23;;;;;;;12.85;2.25;;;9.90;84.80;;;;;;5010852;28;20026;-62
2022/01/05 08:58:49;;;;;;;8.52;1.92;;;9.90;84.70;;;;;;5013359;28;20479;-61
2022/01/05 09:01:15;;;;;;;12.48;2.70;;;9.90;84.30;;;;;;5011741;28;20036;-60
2022/01/05 09:03:40;;;;;;;14.65;2.75;;;9.90;84.00;;;;;;5012739;28;20525;-65
2022/01/05 09:06:07;;;;;;;11.25;2.53;;;9.90;84.30;;;;;;5012628;28;20013;-64
2022/01/05 09:08:37;;;;;;;14.23;3.50;;;9.90;84.80;;;;;;5007691;28;20025;-63
2022/01/05 09:11:03;;;;;;;17.60;2.85;;;9.90;84.60;;;;;;5007837;28;20103;-62
2022/01/05 09:13:29;;;;;;;12.27;2.85;;;9.90;84.70;;;;;;5011755;28;20037;-64
2022/01/05 09:15:54;;;;;;;15.10;2.67;;;10.00;84.70;;;;;;5013307;28;20026;-60
2022/01/05 09:18:20;;;;;;;11.75;2.17;;;10.00;84.90;;;;;;5012337;28;20482;-55
2022/01/05 09:20:46;;;;;;;12.05;3.03;;;10.00;84.40;;;;;;5012123;28;20121;-60
2022/01/05 09:23:11;;;;;;;12.48;2.63;;;10.00;84.40;;;;;;5010232;28;20471;-57
2022/01/05 09:25:37;;;;;;;10.88;2.63;;;10.00;84.70;;;;;;5011377;28;20037;-65
2022/01/05 09:28:03;;;;;;;13.48;2.63;;;10.10;84.60;;;;;;5011686;28;20010;-65
2022/01/05 09:30:29;;;;;;;12.48;2.20;;;10.10;85.00;;;;;;5008838;28;20026;-63
2022/01/05 09:32:55;;;;;;;13.18;2.47;;;10.10;86.60;;;;;;5005633;28;20391;-63
2022/01/05 09:35:23;;;;;;;12.48;2.78;;;10.10;86.00;;;;;;5001257;28;20634;-59
2022/01/05 09:43:08;;;;;;;13.07;2.50;;;10.20;86.80;;;;;;5008610;28;20037;-56
2022/01/05 09:45:36;;;;;;;10.88;2.60;;;10.30;85.50;;;;;;5023018;28;20034;-60
2022/01/05 09:48:29;;;;;;;11.45;3.13;;;10.30;85.10;;;;;;4992825;28;20022;-62
2022/01/05 09:50:58;;;;;;;;;;;10.30;85.30;;;;;;5017785;28;20036;-60
2022/01/05 09:53:25;;;;;;;13.38;2.90;;;10.20;85.80;;;;;;5032650;28;20051;-62
2022/01/05 09:55:52;;;;;;;13.60;2.97;;;10.20;85.90;;;;;;5018095;28;20033;-63
2022/01/05 09:58:22;;;;;;;12.13;2.47;;;10.30;86.90;;;;;;5012549;28;20033;-61
2022/01/05 10:00:49;;;;;;;10.50;2.20;;;10.30;86.50;;;;;;5006483;28;20065;-63
2022/01/05 10:03:15;;;;;;;13.57;2.70;;;10.30;86.00;;;;;;5006327;28;20460;-64
2022/01/05 10:05:41;;;;;;;20.60;3.35;;;10.40;86.10;;;;;;5012915;28;20026;-63
2022/01/05 10:08:07;;;;;;;17.25;2.83;;;10.40;84.90;;;;;;5012707;28;20045;-63
2022/01/05 10:10:33;;;;;;;14.27;4.30;;;10.40;84.90;;;;;;5012691;28;20407;-62
2022/01/05 10:12:59;;;;;;;12.88;2.58;;;10.40;84.60;;;;;;5010203;28;20034;-64
2022/01/05 10:15:26;;;;;;;14.52;2.97;;;10.40;84.50;;;;;;5015311;28;20026;-63
2022/01/05 10:18:12;;;;;;;18.00;3.28;;;10.40;84.50;;;;;;5016168;28;20415;-63
2022/01/05 10:21:01;;;;;;;13.65;3.05;;;10.30;84.10;;;;;;5016379;28;20033;-62
2022/01/05 10:23:45;;;;;;;15.35;3.00;;;10.30;84.20;;;;;;5012136;28;20041;-63
2022/01/05 10:26:26;;;;;;;16.67;3.30;;;10.30;84.70;;;;;;4996504;28;20026;-63
2022/01/05 10:28:57;;;;;;;14.98;3.03;;;10.40;84.80;;;;;;4996550;28;20038;-64
2022/01/05 10:31:31;;;;;;;13.80;2.97;;;10.40;84.50;;;;;;5013349;28;20041;-64
2022/01/05 10:33:57;;;;;;;12.00;3.17;;;10.30;84.70;;;;;;5015227;28;20045;-63
2022/01/05 10:36:23;;;;;;;14.00;2.90;;;10.40;84.80;;;;;;5015461;28;20018;-64
2022/01/05 10:38:57;;;;;;;11.90;2.38;;;10.40;84.70;;;;;;5015627;28;20026;-65
2022/01/05 10:41:25;;;;;;;13.77;3.03;;;10.40;84.80;;;;;;5006869;28;20033;-64
2022/01/05 10:44:06;;;;;;;13.85;3.08;;;10.40;84.90;;;;;;4997598;28;20105;-64
2022/01/05 10:46:37;;;;;;;19.95;2.92;;;10.40;86.00;;;;;;5013688;28;20037;-63
2022/01/05 10:49:04;;;;;;;10.48;2.38;;;10.40;85.30;;;;;;5015708;28;20505;-64
2022/01/05 10:51:34;;;;;;;16.55;3.28;;;10.40;85.50;;;;;;5015610;28;20038;-63
2022/01/05 10:54:10;;;;;;;13.40;3.13;;;10.40;86.10;;;;;;5001082;28;20110;-63
2022/01/05 10:56:35;;;;;;;16.92;3.45;;;10.50;85.50;;;;;;5004911;28;20044;-63
2022/01/05 10:59:02;;;;;;;11.30;2.70;;;10.50;85.60;;;;;;5025411;28;20022;-64
2022/01/05 11:01:28;;;;;;;14.85;2.65;;;10.60;84.40;;;;;;5015357;28;20029;-60
2022/01/05 11:03:54;;;;;;;13.95;2.75;;;10.60;84.00;;;;;;5008697;28;20534;-63
2022/01/05 11:06:20;;;;;;;7.55;2.55;;;10.60;84.00;;;;;;5000925;28;20029;-63
2022/01/05 11:08:54;;;;;;;12.55;2.67;;;10.60;84.30;;;;;;5016653;28;20025;-63
2022/01/05 11:11:49;;;;;;;18.80;3.70;;;10.60;85.50;;;;;;5015009;28;20057;-65
2022/01/05 11:14:28;;;;;;;12.90;2.88;;;10.70;85.20;;;;;;5004360;28;20037;-63
2022/01/05 11:16:55;;;;;;;14.82;3.10;;;10.70;86.00;;;;;;5013520;28;20387;-61
2022/01/05 11:19:21;;;;;;;10.95;2.22;;;10.80;87.80;;;;;;5009651;28;20018;-65
2022/01/05 11:22:05;;;;;;;16.90;3.03;;;10.90;84.00;;;;;;5012857;28;20052;-57
2022/01/05 11:24:42;;;;;;;13.73;2.70;;;10.90;82.80;;;;;;5014065;28;20108;-62
2022/01/05 11:27:14;;;;;;;13.10;2.35;;;10.80;82.80;;;;;;5005906;28;20030;-63
2022/01/05 11:29:41;;;;;;;15.38;3.97;;;10.80;83.00;;;;;;5012466;28;20037;-63
2022/01/05 11:32:10;;;;;;;15.52;3.40;;;10.80;82.60;;;;;;5004309;28;20085;-61
2022/01/05 11:34:36;;;;;;;7.93;2.80;;;10.80;82.70;;;;;;4994811;28;20027;-61
2022/01/05 11:37:02;;;;;;;13.27;4.03;;;10.80;83.60;;;;;;5004981;28;20036;-63
2022/01/05 11:39:31;;;;;;;13.48;2.92;;;10.90;83.50;;;;;;5010627;28;20475;-63
2022/01/05 11:41:58;;;;;;;11.45;2.53;;;10.90;82.80;;;;;;5009804;28;20034;-63
2022/01/05 11:44:28;;;;;;;15.13;3.30;;;10.90;82.00;;;;;;5009084;28;20065;-64
2022/01/05 11:46:54;;;;;;;14.27;2.67;;;10.90;83.90;;;;;;5011721;28;20014;-64
2022/01/05 11:49:28;;;;;;;14.50;2.28;;;10.90;82.80;;;;;;5008999;28;20352;-65
2022/01/05 11:51:56;;;;;;;15.60;2.72;;;10.90;82.40;;;;;;5010613;28;20026;-61
2022/01/05 11:54:23;;;;;;;11.30;2.70;;;10.90;82.60;;;;;;5010187;28;20055;-63
2022/01/05 11:56:52;;;;;;;13.05;2.88;;;10.90;84.80;;;;;;5006143;28;20109;-65
2022/01/05 11:59:19;;;;;;;11.20;2.72;;;11.00;84.70;;;;;;5010866;28;20365;-64
2022/01/05 12:01:57;;;;;;;11.07;2.85;;;11.00;82.90;;;;;;5012904;28;20049;-61
2022/01/05 12:04:23;;;;;;;14.45;2.25;;;11.00;82.00;;;;;;5008863;28;20383;-64
2022/01/05 12:06:49;;;;;;;13.20;2.90;;;11.00;83.20;;;;;;5012891;28;20491;-62
2022/01/05 12:09:26;;;;;;;13.85;2.17;;;11.00;82.00;;;;;;5009411;28;20383;-60
2022/01/05 12:11:52;;;;;;;11.93;2.50;;;11.10;83.00;;;;;;4999059;28;20101;-64
2022/01/05 12:14:20;;;;;;;8.48;2.30;;;11.10;85.70;;;;;;5011869;28;20117;-64
2022/01/05 12:17:01;;;;;;;13.52;2.15;;;11.10;82.30;;;;;;5011616;28;20479;-65
2022/01/05 12:19:32;;;;;;;11.35;2.40;;;11.10;82.60;;;;;;5012599;28;20487;-65
2022/01/05 12:21:59;;;;;;;11.18;2.15;;;11.10;82.00;;;;;;5004391;28;20038;-64
2022/01/05 12:24:57;;;;;;;9.95;3.00;;;11.10;82.00;;;;;;5012849;28;20133;-64
2022/01/05 12:27:26;;;;;;;10.13;2.30;;;11.20;84.60;;;;;;5008437;28;20041;-64
2022/01/05 12:29:54;;;;;;;15.50;3.05;;;11.20;83.30;;;;;;5010432;28;20030;-64
2022/01/05 12:32:36;;;;;;;11.48;2.20;;;11.20;83.80;;;;;;5010992;28;20361;-65
2022/01/05 12:35:16;;;;;;;15.05;2.67;;;11.20;82.10;;;;;;5010163;28;20037;-64
2022/01/05 12:37:47;;;;;;;9.50;2.17;;;11.20;82.80;;;;;;5008853;28;20124;-58
2022/01/05 12:40:27;;;;;;;14.00;3.30;;;11.20;82.50;;;;;;5007551;28;20026;-64
2022/01/05 12:43:08;;;;;;;12.52;3.08;;;11.20;80.40;;;;;;5009443;28;20049;-63
2022/01/05 12:45:57;;;;;;;11.15;2.22;;;11.20;80.50;;;;;;5013300;28;20028;-64
2022/01/05 12:48:40;;;;;;;10.73;2.78;;;11.10;80.10;;;;;;5009983;28;20025;-63
2022/01/05 12:51:12;;;;;;;10.13;2.38;;;11.10;79.80;;;;;;5010538;28;20030;-60